Bullhead City, AZ

11:34 AM MST on March 30, 2017 (GMT -0700)
Laughlin-Bullhead International | | Change Station
Active Advisory: High Wind Warning

Elev 692 ft 35.16 °N, 114.56 °W | Updated 19 minutes ago

Clear
Clear
81 °F
Feels Like 81 °F
N
18
Wind Variable Wind from South

Today
High -- | Low -- °F
--% Chance of Precip.
Yesterday
High -- | Low -- °F
Precip. -- in
Pressure 29.70 in
Visibility 10.0 miles
Clouds Clear
Dew Point 27 °F
Humidity 14%
Rainfall 0.00 in
Snow Depth Not available.
6:27 AM 6:58 PM
Waxing Crescent, 10% visible
METAR KIFP 301815Z AUTO 19016KT 10SM CLR 27/M03 A2970 RMK AO2
Pressure 29.70 in
Visibility 10.0 miles
Clouds Clear
Dew Point 27 °F
Humidity 14%
Rainfall 0.00 in
Snow Depth Not available.
6:27 AM 6:58 PM
Waxing Crescent, 10% visible
METAR KIFP 301815Z AUTO 19016KT 10SM CLR 27/M03 A2970 RMK AO2

Get Your Daily Forecast Email!

Thanks for signing up!

Be on the lookout for a verification email in your inbox.

You'll start receiving severe weather alerts in your inbox..

×

10-Day Weather Forecast

Almanac

Astronomy

Mar. 30, 2017 Rise Set
Actual Time
Civil Twilight
Nautical Twilight
Astronomical Twilight
Moon
Length of Visible Light
Length of Day
Tomorrow will be .
, % of the Moon is Illuminated

Today's Extremes

State Highs State Lows

Community

WunderPhotos

Upload Photos

1,962,540 photos uploaded!

WunderBlog® & News

Nearby

Air Quality

  Air Quality AQ Index Pollutant
Not available.

Snow Depth

Station Depth Elevation

Earthquake Activity

City Distance Mag. Time & Date
Minimum magnitude displayed is 2.5.

Earthquake Activity

City Distance Mag. Time & Date
Minimum magnitude displayed is 2.5.

Coastal Water Temperatures

Place Temperature

Stations

Nearby Weather Stations

Station Location Temp. Windchill Dew Point Humidity Wind Precip. Elev Updated Type
                   

Watches & Warnings

High Wind Warning
Issued: 8:28 AM MDT Mar. 30, 2017 – National Weather Service

... High Wind Warning remains in effect until 11 PM PDT /11 PM
MST/ this evening...

* timing... winds will increase significantly today... peak this
afternoon and evening then diminishing tonight.

* Winds... southwest to northwest winds gusting to around 60 mph.
Up to 75 mph in the mountains.

* Impacts... strong winds may damage roofs... trees... and
unsecured structures. Dangerous travel conditions due to
strong Crosswinds and areas of blowing dust are expected.
Dangerous boating conditions are expected on area lakes due to
significant wave activity.

Precautionary/preparedness actions...

Check the forecast and Road conditions before traveling and be
prepared for reduced visibility and strong Crosswinds...
especially in high-profile vehicles. Secure loose objects and
temporary fences. Take down temporary structures such as tents to
avoid damage. Avoid boating on area lakes during periods of
strong winds.